sensor_id;sensor_type;location;lat;lon;timestamp;temperature;humidity
26589;DHT22;14235;48.532;8.722;2022-09-12T00:01:08;13.30;99.90
26589;DHT22;14235;48.532;8.722;2022-09-12T00:03:34;13.40;99.90
26589;DHT22;14235;48.532;8.722;2022-09-12T00:06:00;13.30;99.90
26589;DHT22;14235;48.532;8.722;2022-09-12T00:08:32;13.40;99.90
26589;DHT22;14235;48.532;8.722;2022-09-12T00:11:04;13.10;99.90
26589;DHT22;14235;48.532;8.722;2022-09-12T00:13:30;13.20;99.90
26589;DHT22;14235;48.532;8.722;2022-09-12T00:15:55;13.20;99.90
26589;DHT22;14235;48.532;8.722;2022-09-12T00:18:21;13.30;99.90
26589;DHT22;14235;48.532;8.722;2022-09-12T00:20:47;13.40;99.90
26589;DHT22;14235;48.532;8.722;2022-09-12T00:23:13;13.30;99.90
26589;DHT22;14235;48.532;8.722;2022-09-12T00:25:43;13.30;99.90
26589;DHT22;14235;48.532;8.722;2022-09-12T00:28:09;13.40;99.90
26589;DHT22;14235;48.532;8.722;2022-09-12T00:30:44;13.30;99.90
26589;DHT22;14235;48.532;8.722;2022-09-12T00:33:11;13.10;99.90
26589;DHT22;14235;48.532;8.722;2022-09-12T00:35:44;13.10;99.90
26589;DHT22;14235;48.532;8.722;2022-09-12T00:38:12;13.00;99.90
26589;DHT22;14235;48.532;8.722;2022-09-12T00:40:38;13.00;99.90
26589;DHT22;14235;48.532;8.722;2022-09-12T00:43:04;13.00;99.90
26589;DHT22;14235;48.532;8.722;2022-09-12T00:45:31;13.00;99.90
26589;DHT22;14235;48.532;8.722;2022-09-12T00:48:01;12.90;99.90
26589;DHT22;14235;48.532;8.722;2022-09-12T00:50:30;12.90;99.90
26589;DHT22;14235;48.532;8.722;2022-09-12T00:55:36;12.70;99.90
26589;DHT22;14235;48.532;8.722;2022-09-12T00:58:18;12.70;99.90
26589;DHT22;14235;48.532;8.722;2022-09-12T01:00:46;12.70;99.90
26589;DHT22;14235;48.532;8.722;2022-09-12T01:03:15;12.70;99.90
26589;DHT22;14235;48.532;8.722;2022-09-12T01:05:46;12.70;99.90
26589;DHT22;14235;48.532;8.722;2022-09-12T01:08:19;12.60;99.90
26589;DHT22;14235;48.532;8.722;2022-09-12T01:10:45;12.60;99.90
26589;DHT22;14235;48.532;8.722;2022-09-12T01:13:11;12.70;99.90
26589;DHT22;14235;48.532;8.722;2022-09-12T01:15:37;12.60;99.90
26589;DHT22;14235;48.532;8.722;2022-09-12T01:43:34;12.60;99.90
26589;DHT22;14235;48.532;8.722;2022-09-12T01:46:20;12.60;99.90
26589;DHT22;14235;48.532;8.722;2022-09-12T01:49:06;12.60;99.90
26589;DHT22;14235;48.532;8.722;2022-09-12T01:51:57;12.50;99.90
26589;DHT22;14235;48.532;8.722;2022-09-12T01:54:46;12.30;99.90
26589;DHT22;14235;48.532;8.722;2022-09-12T01:57:21;12.40;99.90
26589;DHT22;14235;48.532;8.722;2022-09-12T01:59:55;12.50;99.90
26589;DHT22;14235;48.532;8.722;2022-09-12T02:02:32;12.50;99.90
26589;DHT22;14235;48.532;8.722;2022-09-12T02:07:45;12.50;99.90
26589;DHT22;14235;48.532;8.722;2022-09-12T02:10:16;12.40;99.90
26589;DHT22;14235;48.532;8.722;2022-09-12T02:13:02;12.40;99.90
26589;DHT22;14235;48.532;8.722;2022-09-12T02:15:37;12.10;99.90
26589;DHT22;14235;48.532;8.722;2022-09-12T02:18:05;11.90;99.90
26589;DHT22;14235;48.532;8.722;2022-09-12T02:20:36;12.10;99.90
26589;DHT22;14235;48.532;8.722;2022-09-12T02:25:31;11.90;99.90
26589;DHT22;14235;48.532;8.722;2022-09-12T02:28:12;11.80;99.90
26589;DHT22;14235;48.532;8.722;2022-09-12T02:30:48;11.80;99.90
26589;DHT22;14235;48.532;8.722;2022-09-12T02:33:26;11.90;99.90
26589;DHT22;14235;48.532;8.722;2022-09-12T02:38:50;11.80;99.90
26589;DHT22;14235;48.532;8.722;2022-09-12T02:41:18;11.80;99.90
26589;DHT22;14235;48.532;8.722;2022-09-12T02:43:46;11.90;99.90
26589;DHT22;14235;48.532;8.722;2022-09-12T02:46:25;11.80;99.90
26589;DHT22;14235;48.532;8.722;2022-09-12T02:48:52;11.70;99.90
26589;DHT22;14235;48.532;8.722;2022-09-12T02:51:19;11.80;99.90
26589;DHT22;14235;48.532;8.722;2022-09-12T02:53:45;11.80;99.90
26589;DHT22;14235;48.532;8.722;2022-09-12T02:58:42;11.60;99.90
26589;DHT22;14235;48.532;8.722;2022-09-12T03:01:26;11.60;99.90
26589;DHT22;14235;48.532;8.722;2022-09-12T03:15:31;11.40;99.90
26589;DHT22;14235;48.532;8.722;2022-09-12T03:23:41;11.20;99.90
26589;DHT22;14235;48.532;8.722;2022-09-12T03:28:41;11.10;99.90
26589;DHT22;14235;48.532;8.722;2022-09-12T03:31:16;11.10;99.90
26589;DHT22;14235;48.532;8.722;2022-09-12T03:33:45;11.00;99.90
26589;DHT22;14235;48.532;8.722;2022-09-12T03:36:24;11.10;99.90
26589;DHT22;14235;48.532;8.722;2022-09-12T03:38:51;11.20;99.90
26589;DHT22;14235;48.532;8.722;2022-09-12T03:43:44;11.00;99.90
26589;DHT22;14235;48.532;8.722;2022-09-12T03:46:10;11.00;99.90
26589;DHT22;14235;48.532;8.722;2022-09-12T03:48:36;10.90;99.90
26589;DHT22;14235;48.532;8.722;2022-09-12T03:51:07;10.90;99.90
26589;DHT22;14235;48.532;8.722;2022-09-12T03:53:33;11.00;99.90
26589;DHT22;14235;48.532;8.722;2022-09-12T03:55:59;10.90;99.90
26589;DHT22;14235;48.532;8.722;2022-09-12T03:58:29;10.80;99.90
26589;DHT22;14235;48.532;8.722;2022-09-12T04:00:55;10.80;99.90
26589;DHT22;14235;48.532;8.722;2022-09-12T04:07:31;10.80;99.90
26589;DHT22;14235;48.532;8.722;2022-09-12T04:10:10;10.70;99.90
26589;DHT22;14235;48.532;8.722;2022-09-12T04:12:36;10.70;99.90
26589;DHT22;14235;48.532;8.722;2022-09-12T04:15:04;10.70;99.90
26589;DHT22;14235;48.532;8.722;2022-09-12T04:17:33;10.70;99.90
26589;DHT22;14235;48.532;8.722;2022-09-12T04:19:59;10.80;99.90
26589;DHT22;14235;48.532;8.722;2022-09-12T04:22:25;10.70;99.90
26589;DHT22;14235;48.532;8.722;2022-09-12T04:24:51;10.70;99.90
26589;DHT22;14235;48.532;8.722;2022-09-12T04:27:16;10.90;99.90
26589;DHT22;14235;48.532;8.722;2022-09-12T04:29:51;10.70;99.90
26589;DHT22;14235;48.532;8.722;2022-09-12T04:32:19;10.70;99.90
26589;DHT22;14235;48.532;8.722;2022-09-12T04:34:58;10.90;99.90
26589;DHT22;14235;48.532;8.722;2022-09-12T04:37:24;11.00;99.90
26589;DHT22;14235;48.532;8.722;2022-09-12T04:39:50;10.80;99.90
26589;DHT22;14235;48.532;8.722;2022-09-12T04:44:51;10.60;99.90
26589;DHT22;14235;48.532;8.722;2022-09-12T04:47:17;10.50;99.90
26589;DHT22;14235;48.532;8.722;2022-09-12T04:49:43;10.50;99.90
26589;DHT22;14235;48.532;8.722;2022-09-12T04:52:09;10.50;99.90
26589;DHT22;14235;48.532;8.722;2022-09-12T04:54:34;10.60;99.90
26589;DHT22;14235;48.532;8.722;2022-09-12T04:57:00;10.50;99.90
26589;DHT22;14235;48.532;8.722;2022-09-12T04:59:26;10.60;99.90
26589;DHT22;14235;48.532;8.722;2022-09-12T05:01:52;10.60;99.90
26589;DHT22;14235;48.532;8.722;2022-09-12T05:04:18;10.50;99.90
26589;DHT22;14235;48.532;8.722;2022-09-12T05:06:44;10.40;99.90
26589;DHT22;14235;48.532;8.722;2022-09-12T05:09:23;10.40;99.90
26589;DHT22;14235;48.532;8.722;2022-09-12T05:11:49;10.40;99.90
26589;DHT22;14235;48.532;8.722;2022-09-12T05:14:14;10.40;99.90
26589;DHT22;14235;48.532;8.722;2022-09-12T05:16:41;10.40;99.90
26589;DHT22;14235;48.532;8.722;2022-09-12T05:19:08;10.30;99.90
26589;DHT22;14235;48.532;8.722;2022-09-12T05:21:36;10.20;99.90
26589;DHT22;14235;48.532;8.722;2022-09-12T05:24:03;10.20;99.90
26589;DHT22;14235;48.532;8.722;2022-09-12T05:26:31;10.10;99.90
26589;DHT22;14235;48.532;8.722;2022-09-12T05:28:57;10.10;99.90
26589;DHT22;14235;48.532;8.722;2022-09-12T05:31:27;10.10;99.90
26589;DHT22;14235;48.532;8.722;2022-09-12T05:33:54;10.10;99.90
26589;DHT22;14235;48.532;8.722;2022-09-12T05:36:23;10.10;99.90
26589;DHT22;14235;48.532;8.722;2022-09-12T05:38:50;10.10;99.90
26589;DHT22;14235;48.532;8.722;2022-09-12T05:41:19;10.20;99.90
26589;DHT22;14235;48.532;8.722;2022-09-12T05:43:46;10.30;99.90
26589;DHT22;14235;48.532;8.722;2022-09-12T05:46:15;10.20;99.90
26589;DHT22;14235;48.532;8.722;2022-09-12T05:48:43;10.10;99.90
26589;DHT22;14235;48.532;8.722;2022-09-12T05:51:11;10.10;99.90
26589;DHT22;14235;48.532;8.722;2022-09-12T05:56:10;9.50;99.90
26589;DHT22;14235;48.532;8.722;2022-09-12T06:01:15;10.20;99.90
26589;DHT22;14235;48.532;8.722;2022-09-12T06:06:10;10.40;99.90
26589;DHT22;14235;48.532;8.722;2022-09-12T06:08:43;10.40;99.90
26589;DHT22;14235;48.532;8.722;2022-09-12T06:11:13;10.60;99.90
26589;DHT22;14235;48.532;8.722;2022-09-12T06:16:14;10.50;99.90
26589;DHT22;14235;48.532;8.722;2022-09-12T06:18:41;10.30;99.90
26589;DHT22;14235;48.532;8.722;2022-09-12T06:21:12;10.40;99.90
26589;DHT22;14235;48.532;8.722;2022-09-12T06:23:39;10.50;99.90
26589;DHT22;14235;48.532;8.722;2022-09-12T06:26:08;10.50;99.90
26589;DHT22;14235;48.532;8.722;2022-09-12T06:28:38;10.50;99.90
26589;DHT22;14235;48.532;8.722;2022-09-12T06:31:05;10.60;99.90
26589;DHT22;14235;48.532;8.722;2022-09-12T06:33:36;10.60;99.90
26589;DHT22;14235;48.532;8.722;2022-09-12T06:36:08;10.70;99.90
26589;DHT22;14235;48.532;8.722;2022-09-12T06:38:35;10.60;99.90
26589;DHT22;14235;48.532;8.722;2022-09-12T06:41:04;10.70;99.90
26589;DHT22;14235;48.532;8.722;2022-09-12T06:43:31;10.80;99.90
26589;DHT22;14235;48.532;8.722;2022-09-12T06:45:57;11.00;99.90
26589;DHT22;14235;48.532;8.722;2022-09-12T06:48:23;11.10;99.90
26589;DHT22;14235;48.532;8.722;2022-09-12T06:51:02;11.10;99.90
26589;DHT22;14235;48.532;8.722;2022-09-12T06:53:29;11.10;99.90
26589;DHT22;14235;48.532;8.722;2022-09-12T06:56:03;11.20;99.90
26589;DHT22;14235;48.532;8.722;2022-09-12T06:58:30;11.30;99.90
26589;DHT22;14235;48.532;8.722;2022-09-12T07:01:12;11.40;99.90
26589;DHT22;14235;48.532;8.722;2022-09-12T07:03:39;11.40;99.90
26589;DHT22;14235;48.532;8.722;2022-09-12T07:06:07;11.50;99.90
26589;DHT22;14235;48.532;8.722;2022-09-12T07:11:12;11.60;99.90
26589;DHT22;14235;48.532;8.722;2022-09-12T07:13:39;11.70;99.90
26589;DHT22;14235;48.532;8.722;2022-09-12T07:16:06;11.70;99.90
26589;DHT22;14235;48.532;8.722;2022-09-12T07:18:33;11.70;99.90
26589;DHT22;14235;48.532;8.722;2022-09-12T07:21:01;11.90;99.90
26589;DHT22;14235;48.532;8.722;2022-09-12T07:23:28;12.00;99.90
26589;DHT22;14235;48.532;8.722;2022-09-12T07:25:55;12.00;99.90
26589;DHT22;14235;48.532;8.722;2022-09-12T07:28:23;12.00;99.90
26589;DHT22;14235;48.532;8.722;2022-09-12T07:30:49;12.10;99.90
26589;DHT22;14235;48.532;8.722;2022-09-12T07:33:16;12.10;99.90
26589;DHT22;14235;48.532;8.722;2022-09-12T07:35:42;12.20;99.90
26589;DHT22;14235;48.532;8.722;2022-09-12T07:38:07;12.20;99.90
26589;DHT22;14235;48.532;8.722;2022-09-12T07:40:33;12.30;99.90
26589;DHT22;14235;48.532;8.722;2022-09-12T07:42:59;12.40;99.90
26589;DHT22;14235;48.532;8.722;2022-09-12T07:45:25;12.40;99.90
26589;DHT22;14235;48.532;8.722;2022-09-12T07:47:54;12.50;99.90
26589;DHT22;14235;48.532;8.722;2022-09-12T07:50:20;12.50;99.90
26589;DHT22;14235;48.532;8.722;2022-09-12T07:52:46;12.50;99.90
26589;DHT22;14235;48.532;8.722;2022-09-12T07:55:12;12.60;99.90
26589;DHT22;14235;48.532;8.722;2022-09-12T07:57:38;12.70;99.90
26589;DHT22;14235;48.532;8.722;2022-09-12T08:00:04;12.70;99.90
26589;DHT22;14235;48.532;8.722;2022-09-12T08:05:00;12.80;99.90
26589;DHT22;14235;48.532;8.722;2022-09-12T08:07:26;13.00;99.90
26589;DHT22;14235;48.532;8.722;2022-09-12T08:09:52;13.10;99.90
26589;DHT22;14235;48.532;8.722;2022-09-12T08:12:18;13.10;99.90
26589;DHT22;14235;48.532;8.722;2022-09-12T08:14:45;13.20;99.90
26589;DHT22;14235;48.532;8.722;2022-09-12T08:17:12;13.30;99.90
26589;DHT22;14235;48.532;8.722;2022-09-12T08:19:38;13.30;99.90
26589;DHT22;14235;48.532;8.722;2022-09-12T08:22:04;13.40;99.90
26589;DHT22;14235;48.532;8.722;2022-09-12T08:24:30;13.40;99.90
26589;DHT22;14235;48.532;8.722;2022-09-12T08:26:59;13.50;99.90
26589;DHT22;14235;48.532;8.722;2022-09-12T08:29:25;13.60;99.90
26589;DHT22;14235;48.532;8.722;2022-09-12T08:31:52;13.60;99.90
26589;DHT22;14235;48.532;8.722;2022-09-12T08:34:21;13.60;99.90
26589;DHT22;14235;48.532;8.722;2022-09-12T08:36:50;13.70;99.90
26589;DHT22;14235;48.532;8.722;2022-09-12T08:47:19;14.20;99.90
26589;DHT22;14235;48.532;8.722;2022-09-12T08:52:59;14.30;99.90
26589;DHT22;14235;48.532;8.722;2022-09-12T08:57:59;14.40;99.90
26589;DHT22;14235;48.532;8.722;2022-09-12T09:00:48;14.50;99.90
26589;DHT22;14235;48.532;8.722;2022-09-12T09:06:30;14.50;99.90
26589;DHT22;14235;48.532;8.722;2022-09-12T09:09:11;14.70;99.90
26589;DHT22;14235;48.532;8.722;2022-09-12T09:11:56;14.80;99.90
26589;DHT22;14235;48.532;8.722;2022-09-12T09:22:45;15.20;99.90
26589;DHT22;14235;48.532;8.722;2022-09-12T09:25:25;15.20;99.90
26589;DHT22;14235;48.532;8.722;2022-09-12T09:28:03;15.30;99.90
26589;DHT22;14235;48.532;8.722;2022-09-12T09:30:32;15.40;99.90
26589;DHT22;14235;48.532;8.722;2022-09-12T09:33:14;15.40;99.90
26589;DHT22;14235;48.532;8.722;2022-09-12T09:35:46;15.50;99.90
26589;DHT22;14235;48.532;8.722;2022-09-12T09:41:31;15.70;99.90
26589;DHT22;14235;48.532;8.722;2022-09-12T09:44:04;15.70;99.90
26589;DHT22;14235;48.532;8.722;2022-09-12T09:46:38;15.80;99.90
26589;DHT22;14235;48.532;8.722;2022-09-12T09:49:14;16.00;99.90
26589;DHT22;14235;48.532;8.722;2022-09-12T09:51:43;16.00;99.90
26589;DHT22;14235;48.532;8.722;2022-09-12T09:54:23;16.20;99.90
26589;DHT22;14235;48.532;8.722;2022-09-12T09:56:55;16.20;99.90
26589;DHT22;14235;48.532;8.722;2022-09-12T09:59:34;16.20;99.90
26589;DHT22;14235;48.532;8.722;2022-09-12T10:02:23;16.40;99.90
26589;DHT22;14235;48.532;8.722;2022-09-12T10:04:56;16.50;99.90
26589;DHT22;14235;48.532;8.722;2022-09-12T10:07:37;16.50;99.90
26589;DHT22;14235;48.532;8.722;2022-09-12T10:10:19;16.60;99.90
26589;DHT22;14235;48.532;8.722;2022-09-12T10:13:30;16.80;99.90
26589;DHT22;14235;48.532;8.722;2022-09-12T10:16:20;16.90;99.90
26589;DHT22;14235;48.532;8.722;2022-09-12T10:19:38;17.10;99.90
26589;DHT22;14235;48.532;8.722;2022-09-12T10:22:32;17.20;99.90
26589;DHT22;14235;48.532;8.722;2022-09-12T10:25:14;17.50;99.90
26589;DHT22;14235;48.532;8.722;2022-09-12T10:27:52;17.60;99.90
26589;DHT22;14235;48.532;8.722;2022-09-12T10:30:31;17.60;99.90
26589;DHT22;14235;48.532;8.722;2022-09-12T10:33:16;17.70;99.90
26589;DHT22;14235;48.532;8.722;2022-09-12T10:36:15;17.90;99.90
26589;DHT22;14235;48.532;8.722;2022-09-12T10:39:25;17.90;99.90
26589;DHT22;14235;48.532;8.722;2022-09-12T10:42:56;18.00;99.90
26589;DHT22;14235;48.532;8.722;2022-09-12T10:46:32;18.20;99.90
26589;DHT22;14235;48.532;8.722;2022-09-12T10:49:36;18.30;99.90
26589;DHT22;14235;48.532;8.722;2022-09-12T11:00:14;18.50;99.90
26589;DHT22;14235;48.532;8.722;2022-09-12T11:30:16;19.50;99.60
26589;DHT22;14235;48.532;8.722;2022-09-12T11:32:45;19.50;98.30
26589;DHT22;14235;48.532;8.722;2022-09-12T11:35:33;19.60;99.50
26589;DHT22;14235;48.532;8.722;2022-09-12T11:40:59;19.70;99.60
26589;DHT22;14235;48.532;8.722;2022-09-12T11:46:52;19.90;98.40
26589;DHT22;14235;48.532;8.722;2022-09-12T11:49:30;20.00;98.60
26589;DHT22;14235;48.532;8.722;2022-09-12T11:52:13;20.10;98.20
26589;DHT22;14235;48.532;8.722;2022-09-12T11:54:56;20.20;97.20
26589;DHT22;14235;48.532;8.722;2022-09-12T11:57:38;20.30;97.80
26589;DHT22;14235;48.532;8.722;2022-09-12T12:00:21;20.40;98.30
26589;DHT22;14235;48.532;8.722;2022-09-12T12:06:02;20.60;97.00
26589;DHT22;14235;48.532;8.722;2022-09-12T12:08:33;20.70;99.50
26589;DHT22;14235;48.532;8.722;2022-09-12T12:11:03;20.80;99.30
26589;DHT22;14235;48.532;8.722;2022-09-12T12:14:40;21.00;99.20
26589;DHT22;14235;48.532;8.722;2022-09-12T12:16:36;21.00;97.40
26589;DHT22;14235;48.532;8.722;2022-09-12T12:21:42;21.10;95.00
26589;DHT22;14235;48.532;8.722;2022-09-12T12:34:39;21.70;94.80
26589;DHT22;14235;48.532;8.722;2022-09-12T12:52:52;22.10;94.50
26589;DHT22;14235;48.532;8.722;2022-09-12T12:55:25;22.10;94.90
26589;DHT22;14235;48.532;8.722;2022-09-12T12:57:55;22.30;93.60
26589;DHT22;14235;48.532;8.722;2022-09-12T13:05:43;22.60;94.30
26589;DHT22;14235;48.532;8.722;2022-09-12T13:08:24;22.70;92.30
26589;DHT22;14235;48.532;8.722;2022-09-12T13:10:58;22.70;92.90
26589;DHT22;14235;48.532;8.722;2022-09-12T13:13:48;22.90;91.60
26589;DHT22;14235;48.532;8.722;2022-09-12T13:16:32;22.90;88.10
26589;DHT22;14235;48.532;8.722;2022-09-12T13:19:05;22.90;86.50
26589;DHT22;14235;48.532;8.722;2022-09-12T13:21:32;23.10;87.80
26589;DHT22;14235;48.532;8.722;2022-09-12T13:24:04;23.20;86.80
26589;DHT22;14235;48.532;8.722;2022-09-12T13:26:42;23.30;84.70
26589;DHT22;14235;48.532;8.722;2022-09-12T13:29:19;23.40;84.00
26589;DHT22;14235;48.532;8.722;2022-09-12T13:31:48;23.30;84.60
26589;DHT22;14235;48.532;8.722;2022-09-12T13:34:29;23.40;88.10
26589;DHT22;14235;48.532;8.722;2022-09-12T13:45:22;23.70;82.80
26589;DHT22;14235;48.532;8.722;2022-09-12T13:48:00;23.80;80.10
26589;DHT22;14235;48.532;8.722;2022-09-12T14:05:41;29.20;88.40
26589;DHT22;14235;48.532;8.722;2022-09-12T14:51:38;38.90;27.70
26589;DHT22;14235;48.532;8.722;2022-09-12T14:54:04;39.00;28.20
26589;DHT22;14235;48.532;8.722;2022-09-12T14:56:44;38.90;28.50
26589;DHT22;14235;48.532;8.722;2022-09-12T15:04:48;35.20;34.60
26589;DHT22;14235;48.532;8.722;2022-09-12T15:07:43;34.30;36.40
26589;DHT22;14235;48.532;8.722;2022-09-12T15:10:34;34.40;33.10
26589;DHT22;14235;48.532;8.722;2022-09-12T15:15:40;35.30;33.50
26589;DHT22;14235;48.532;8.722;2022-09-12T15:18:06;34.70;34.70
26589;DHT22;14235;48.532;8.722;2022-09-12T15:20:36;33.00;36.10
26589;DHT22;14235;48.532;8.722;2022-09-12T15:23:11;31.20;39.40
26589;DHT22;14235;48.532;8.722;2022-09-12T15:28:20;29.10;44.80
26589;DHT22;14235;48.532;8.722;2022-09-12T15:33:15;27.80;44.90
26589;DHT22;14235;48.532;8.722;2022-09-12T15:35:41;27.40;43.80
26589;DHT22;14235;48.532;8.722;2022-09-12T15:38:06;26.90;48.80
26589;DHT22;14235;48.532;8.722;2022-09-12T15:40:32;26.60;51.80
26589;DHT22;14235;48.532;8.722;2022-09-12T15:42:57;26.50;50.60
26589;DHT22;14235;48.532;8.722;2022-09-12T15:45:31;26.30;52.00
26589;DHT22;14235;48.532;8.722;2022-09-12T15:47:59;26.10;54.80
26589;DHT22;14235;48.532;8.722;2022-09-12T15:50:26;25.70;54.60
26589;DHT22;14235;48.532;8.722;2022-09-12T15:52:52;25.50;54.30
26589;DHT22;14235;48.532;8.722;2022-09-12T15:55:21;25.20;54.60
26589;DHT22;14235;48.532;8.722;2022-09-12T15:57:48;25.00;54.20
26589;DHT22;14235;48.532;8.722;2022-09-12T16:02:42;24.80;56.30
26589;DHT22;14235;48.532;8.722;2022-09-12T16:05:13;24.70;58.90
26589;DHT22;14235;48.532;8.722;2022-09-12T16:07:41;24.60;58.30
26589;DHT22;14235;48.532;8.722;2022-09-12T16:10:07;24.30;58.80
26589;DHT22;14235;48.532;8.722;2022-09-12T16:12:32;24.10;58.30
26589;DHT22;14235;48.532;8.722;2022-09-12T16:14:58;24.00;59.30
26589;DHT22;14235;48.532;8.722;2022-09-12T16:17:25;23.90;58.70
26589;DHT22;14235;48.532;8.722;2022-09-12T16:19:50;23.90;58.30
26589;DHT22;14235;48.532;8.722;2022-09-12T16:22:16;23.90;59.10
26589;DHT22;14235;48.532;8.722;2022-09-12T16:24:42;23.80;60.30
26589;DHT22;14235;48.532;8.722;2022-09-12T16:27:08;23.50;60.30
26589;DHT22;14235;48.532;8.722;2022-09-12T16:29:33;23.50;61.70
26589;DHT22;14235;48.532;8.722;2022-09-12T16:31:59;23.30;61.50
26589;DHT22;14235;48.532;8.722;2022-09-12T16:34:24;23.20;60.50
26589;DHT22;14235;48.532;8.722;2022-09-12T16:36:50;23.20;61.90
26589;DHT22;14235;48.532;8.722;2022-09-12T16:39:15;23.00;61.80
26589;DHT22;14235;48.532;8.722;2022-09-12T16:41:41;22.90;63.50
26589;DHT22;14235;48.532;8.722;2022-09-12T16:44:07;22.80;65.20
26589;DHT22;14235;48.532;8.722;2022-09-12T16:46:33;22.60;65.50
26589;DHT22;14235;48.532;8.722;2022-09-12T16:48:59;22.40;69.50
26589;DHT22;14235;48.532;8.722;2022-09-12T16:51:30;22.50;67.50
26589;DHT22;14235;48.532;8.722;2022-09-12T16:53:56;22.30;70.30
26589;DHT22;14235;48.532;8.722;2022-09-12T16:56:22;22.40;73.10
26589;DHT22;14235;48.532;8.722;2022-09-12T16:58:47;22.30;75.60
26589;DHT22;14235;48.532;8.722;2022-09-12T17:01:24;22.10;74.20
26589;DHT22;14235;48.532;8.722;2022-09-12T17:08:49;21.70;73.70
26589;DHT22;14235;48.532;8.722;2022-09-12T17:11:23;21.70;74.70
26589;DHT22;14235;48.532;8.722;2022-09-12T17:13:53;21.70;74.60
26589;DHT22;14235;48.532;8.722;2022-09-12T17:16:19;21.70;75.00
26589;DHT22;14235;48.532;8.722;2022-09-12T17:18:45;21.60;76.10
26589;DHT22;14235;48.532;8.722;2022-09-12T17:21:11;21.60;74.70
26589;DHT22;14235;48.532;8.722;2022-09-12T17:23:37;21.60;76.00
26589;DHT22;14235;48.532;8.722;2022-09-12T17:26:04;21.60;76.40
26589;DHT22;14235;48.532;8.722;2022-09-12T17:28:30;21.50;77.60
26589;DHT22;14235;48.532;8.722;2022-09-12T17:31:00;21.50;78.10
26589;DHT22;14235;48.532;8.722;2022-09-12T17:33:27;21.30;78.70
26589;DHT22;14235;48.532;8.722;2022-09-12T17:35:54;21.20;81.10
26589;DHT22;14235;48.532;8.722;2022-09-12T17:38:20;21.10;82.20
26589;DHT22;14235;48.532;8.722;2022-09-12T17:40:46;21.10;83.10
26589;DHT22;14235;48.532;8.722;2022-09-12T17:43:12;21.00;83.60
26589;DHT22;14235;48.532;8.722;2022-09-12T17:45:38;20.90;84.40
26589;DHT22;14235;48.532;8.722;2022-09-12T17:48:05;20.90;84.90
26589;DHT22;14235;48.532;8.722;2022-09-12T17:50:34;20.70;85.70
26589;DHT22;14235;48.532;8.722;2022-09-12T17:53:00;20.60;85.50
26589;DHT22;14235;48.532;8.722;2022-09-12T17:55:26;20.50;86.00
26589;DHT22;14235;48.532;8.722;2022-09-12T17:57:52;20.50;86.40
26589;DHT22;14235;48.532;8.722;2022-09-12T18:00:17;20.40;86.80
26589;DHT22;14235;48.532;8.722;2022-09-12T18:03:03;20.40;87.80
26589;DHT22;14235;48.532;8.722;2022-09-12T18:05:28;20.30;88.70
26589;DHT22;14235;48.532;8.722;2022-09-12T18:07:54;20.20;89.50
26589;DHT22;14235;48.532;8.722;2022-09-12T18:10:19;20.10;89.40
26589;DHT22;14235;48.532;8.722;2022-09-12T18:12:45;20.00;90.10
26589;DHT22;14235;48.532;8.722;2022-09-12T18:15:11;19.90;90.20
26589;DHT22;14235;48.532;8.722;2022-09-12T18:17:37;19.80;90.40
26589;DHT22;14235;48.532;8.722;2022-09-12T18:20:03;19.80;90.60
26589;DHT22;14235;48.532;8.722;2022-09-12T18:22:30;19.70;91.00
26589;DHT22;14235;48.532;8.722;2022-09-12T18:24:56;19.60;91.40
26589;DHT22;14235;48.532;8.722;2022-09-12T18:27:21;19.50;91.80
26589;DHT22;14235;48.532;8.722;2022-09-12T18:29:47;19.50;91.70
26589;DHT22;14235;48.532;8.722;2022-09-12T18:32:12;19.40;92.10
26589;DHT22;14235;48.532;8.722;2022-09-12T18:34:38;19.40;92.10
26589;DHT22;14235;48.532;8.722;2022-09-12T18:37:04;19.40;92.30
26589;DHT22;14235;48.532;8.722;2022-09-12T18:39:31;19.30;92.20
26589;DHT22;14235;48.532;8.722;2022-09-12T18:44:24;18.80;93.00
26589;DHT22;14235;48.532;8.722;2022-09-12T18:46:50;18.80;93.50
26589;DHT22;14235;48.532;8.722;2022-09-12T18:49:16;18.80;93.60
26589;DHT22;14235;48.532;8.722;2022-09-12T18:51:41;18.70;93.60
26589;DHT22;14235;48.532;8.722;2022-09-12T18:54:34;18.80;94.10
26589;DHT22;14235;48.532;8.722;2022-09-12T18:57:00;18.80;94.20
26589;DHT22;14235;48.532;8.722;2022-09-12T18:59:26;18.80;94.00
26589;DHT22;14235;48.532;8.722;2022-09-12T19:01:52;18.70;94.10
26589;DHT22;14235;48.532;8.722;2022-09-12T19:04:18;18.80;94.20
26589;DHT22;14235;48.532;8.722;2022-09-12T19:06:45;18.80;94.10
26589;DHT22;14235;48.532;8.722;2022-09-12T19:09:13;18.70;94.20
26589;DHT22;14235;48.532;8.722;2022-09-12T19:11:41;18.70;94.10
26589;DHT22;14235;48.532;8.722;2022-09-12T19:14:15;18.70;94.20
26589;DHT22;14235;48.532;8.722;2022-09-12T19:16:41;18.60;94.20
26589;DHT22;14235;48.532;8.722;2022-09-12T19:19:06;18.60;94.50
26589;DHT22;14235;48.532;8.722;2022-09-12T19:21:33;18.50;94.50
26589;DHT22;14235;48.532;8.722;2022-09-12T19:24:05;18.50;94.50
26589;DHT22;14235;48.532;8.722;2022-09-12T19:26:31;18.40;94.60
26589;DHT22;14235;48.532;8.722;2022-09-12T19:28:56;18.20;95.10
26589;DHT22;14235;48.532;8.722;2022-09-12T19:31:22;18.20;95.20
26589;DHT22;14235;48.532;8.722;2022-09-12T19:33:48;18.20;95.50
26589;DHT22;14235;48.532;8.722;2022-09-12T19:36:16;18.10;95.00
26589;DHT22;14235;48.532;8.722;2022-09-12T19:38:42;18.00;95.00
26589;DHT22;14235;48.532;8.722;2022-09-12T19:41:10;17.90;95.60
26589;DHT22;14235;48.532;8.722;2022-09-12T19:43:36;17.90;95.70
26589;DHT22;14235;48.532;8.722;2022-09-12T19:46:02;17.80;95.60
26589;DHT22;14235;48.532;8.722;2022-09-12T19:48:28;17.70;95.40
26589;DHT22;14235;48.532;8.722;2022-09-12T19:51:01;17.70;95.90
26589;DHT22;14235;48.532;8.722;2022-09-12T19:53:28;17.60;96.30
26589;DHT22;14235;48.532;8.722;2022-09-12T19:56:04;17.70;96.40
26589;DHT22;14235;48.532;8.722;2022-09-12T19:58:31;17.60;96.20
26589;DHT22;14235;48.532;8.722;2022-09-12T20:01:17;17.70;96.40
26589;DHT22;14235;48.532;8.722;2022-09-12T20:03:43;17.60;96.40
26589;DHT22;14235;48.532;8.722;2022-09-12T20:06:14;17.60;96.40
26589;DHT22;14235;48.532;8.722;2022-09-12T20:08:40;17.60;96.40
26589;DHT22;14235;48.532;8.722;2022-09-12T20:11:12;17.60;96.40
26589;DHT22;14235;48.532;8.722;2022-09-12T20:13:37;17.60;96.40
26589;DHT22;14235;48.532;8.722;2022-09-12T20:18:40;17.60;96.40
26589;DHT22;14235;48.532;8.722;2022-09-12T20:21:11;17.50;96.30
26589;DHT22;14235;48.532;8.722;2022-09-12T20:23:37;17.50;96.20
26589;DHT22;14235;48.532;8.722;2022-09-12T20:26:05;17.40;96.40
26589;DHT22;14235;48.532;8.722;2022-09-12T20:28:31;17.40;96.40
26589;DHT22;14235;48.532;8.722;2022-09-12T20:31:01;17.30;96.60
26589;DHT22;14235;48.532;8.722;2022-09-12T20:33:28;17.20;96.70
26589;DHT22;14235;48.532;8.722;2022-09-12T20:36:00;17.10;96.80